createdAt,value
2022-10-10T00:02:08.979Z,45.28
2022-10-10T00:04:35.283Z,45.60
2022-10-10T00:07:01.566Z,45.15
2022-10-10T00:09:27.855Z,46.55
2022-10-10T00:11:54.126Z,44.25
2022-10-10T00:14:20.384Z,42.03
2022-10-10T00:16:46.643Z,47.05
2022-10-10T00:19:12.941Z,45.95
2022-10-10T00:21:39.206Z,50.33
2022-10-10T00:24:05.474Z,45.95
2022-10-10T00:26:31.724Z,43.97
2022-10-10T00:28:57.978Z,48.05
2022-10-10T00:31:24.363Z,47.88
2022-10-10T00:33:50.619Z,48.88
2022-10-10T00:36:17.018Z,47.13
2022-10-10T00:38:43.279Z,53.20
2022-10-10T00:41:09.536Z,53.97
2022-10-10T00:43:35.794Z,71.32
2022-10-10T00:46:02.107Z,66.07
2022-10-10T00:48:28.369Z,76.55
2022-10-10T00:50:54.648Z,65.47
2022-10-10T00:53:20.929Z,50.78
2022-10-10T00:55:47.691Z,50.72
2022-10-10T00:58:13.964Z,47.75
2022-10-10T01:00:40.267Z,52.25
2022-10-10T01:03:06.575Z,61.28
2022-10-10T01:05:32.834Z,68.65
2022-10-10T01:07:59.085Z,71.35
2022-10-10T01:10:25.391Z,58.30
2022-10-10T01:12:51.896Z,73.82
2022-10-10T01:15:18.486Z,51.17
2022-10-10T01:17:44.762Z,52.65
2022-10-10T01:20:11.034Z,49.20
2022-10-10T01:22:37.281Z,47.75
2022-10-10T01:25:06.815Z,73.30
2022-10-10T01:27:33.102Z,71.72
2022-10-10T01:29:59.384Z,66.82
2022-10-10T01:32:25.630Z,66.20
2022-10-10T01:34:51.905Z,45.28
2022-10-10T01:37:18.176Z,54.50
2022-10-10T01:39:44.448Z,49.97
2022-10-10T01:42:10.770Z,51.63
2022-10-10T01:44:37.154Z,49.83
2022-10-10T01:47:03.434Z,44.70
2022-10-10T01:49:29.701Z,49.55
2022-10-10T01:51:55.954Z,48.38
2022-10-10T01:54:22.207Z,64.90
2022-10-10T01:56:48.451Z,76.57
2022-10-10T01:59:14.711Z,69.50
2022-10-10T02:01:40.965Z,68.25
2022-10-10T02:04:07.241Z,57.03
2022-10-10T02:06:33.497Z,51.88
2022-10-10T02:08:59.803Z,49.35
2022-10-10T02:11:26.060Z,54.42
2022-10-10T02:13:52.339Z,55.42
2022-10-10T02:16:18.808Z,57.28
2022-10-10T02:18:45.802Z,51.25
2022-10-10T02:21:12.056Z,52.03
2022-10-10T02:23:38.298Z,52.83
2022-10-10T02:26:04.555Z,51.33
2022-10-10T02:28:30.859Z,50.97
2022-10-10T02:30:57.198Z,55.63
2022-10-10T02:33:23.451Z,48.13
2022-10-10T02:35:49.702Z,48.67
2022-10-10T02:38:16.023Z,47.78
2022-10-10T02:40:42.292Z,54.10
2022-10-10T02:43:08.601Z,56.10
2022-10-10T02:45:34.887Z,53.22
2022-10-10T02:48:01.136Z,60.55
2022-10-10T02:50:27.377Z,53.00
2022-10-10T02:52:53.869Z,56.20
2022-10-10T02:55:20.259Z,58.83
2022-10-10T02:57:46.517Z,57.00
2022-10-10T03:00:12.762Z,55.30
2022-10-10T03:02:39.051Z,50.70
2022-10-10T03:05:06.030Z,49.50
2022-10-10T03:07:32.391Z,47.70
2022-10-10T03:09:58.652Z,53.88
2022-10-10T03:12:24.901Z,55.83
2022-10-10T03:14:51.152Z,54.08
2022-10-10T03:17:17.406Z,47.20
2022-10-10T03:19:43.683Z,61.35
2022-10-10T03:22:09.946Z,71.30
2022-10-10T03:24:36.209Z,67.68
2022-10-10T03:27:02.473Z,57.78
2022-10-10T03:29:28.754Z,61.03
2022-10-10T03:31:55.038Z,62.95
2022-10-10T03:34:21.299Z,51.65
2022-10-10T03:36:47.548Z,49.22
2022-10-10T03:39:13.799Z,52.30
2022-10-10T03:41:40.064Z,46.45
2022-10-10T03:44:06.340Z,45.72
2022-10-10T03:46:32.597Z,48.13
2022-10-10T03:48:58.866Z,44.58
2022-10-10T03:51:25.161Z,55.58
2022-10-10T03:53:51.465Z,60.25
2022-10-10T03:56:17.726Z,48.47
2022-10-10T03:58:43.995Z,41.13
2022-10-10T04:01:10.332Z,42.72
2022-10-10T04:03:36.665Z,43.13
2022-10-10T04:06:02.940Z,50.67
2022-10-10T04:08:30.507Z,64.38
2022-10-10T04:10:56.815Z,59.30
2022-10-10T04:13:23.104Z,52.88
2022-10-10T04:15:49.367Z,62.28
2022-10-10T04:18:15.640Z,64.38
2022-10-10T04:20:41.883Z,68.30
2022-10-10T04:23:08.141Z,65.75
2022-10-10T04:25:34.422Z,58.20
2022-10-10T04:28:01.410Z,59.50
2022-10-10T04:30:27.736Z,66.80
2022-10-10T04:32:54.091Z,64.65
2022-10-10T04:35:20.392Z,60.80
2022-10-10T04:37:46.693Z,62.13
2022-10-10T04:40:13.112Z,62.83
2022-10-10T04:42:39.481Z,51.33
2022-10-10T04:45:07.198Z,64.57
2022-10-10T04:47:33.473Z,62.95
2022-10-10T04:49:59.752Z,66.32
2022-10-10T04:52:26.015Z,57.60
2022-10-10T04:54:52.284Z,46.60
2022-10-10T04:57:18.579Z,61.97
2022-10-10T04:59:45.082Z,55.45
2022-10-10T05:02:11.360Z,46.60
2022-10-10T05:04:37.657Z,50.17
2022-10-10T05:07:03.905Z,51.65
2022-10-10T05:09:30.171Z,53.45
2022-10-10T05:11:56.421Z,62.00
2022-10-10T05:14:22.796Z,56.92
2022-10-10T05:16:49.034Z,59.50
2022-10-10T05:19:15.308Z,57.60
2022-10-10T05:21:41.589Z,63.20
2022-10-10T05:24:07.983Z,56.85
2022-10-10T05:26:34.319Z,56.72
2022-10-10T05:29:01.594Z,66.72
2022-10-10T05:31:28.658Z,61.55
2022-10-10T05:33:54.920Z,57.03
2022-10-10T05:36:21.208Z,54.17
2022-10-10T05:38:54.314Z,63.53
2022-10-10T05:41:20.588Z,62.53
2022-10-10T05:43:46.886Z,61.97
2022-10-10T05:46:13.177Z,57.40
2022-10-10T05:48:39.591Z,64.82
2022-10-10T05:51:07.319Z,76.57
2022-10-10T05:53:33.579Z,48.72
2022-10-10T05:55:59.832Z,44.53
2022-10-10T05:58:26.126Z,42.05
2022-10-10T06:00:52.471Z,43.72
2022-10-10T06:03:18.806Z,47.42
2022-10-10T06:05:45.066Z,46.00
2022-10-10T06:08:12.400Z,42.25
2022-10-10T06:10:38.892Z,47.33
2022-10-10T06:13:05.138Z,48.88
2022-10-10T06:15:31.382Z,46.97
2022-10-10T06:17:57.630Z,49.28
2022-10-10T06:20:23.915Z,48.15
2022-10-10T06:22:50.394Z,46.03
2022-10-10T06:25:38.264Z,46.30
2022-10-10T06:28:03.080Z,49.17
2022-10-10T06:30:29.604Z,50.70
2022-10-10T06:32:57.592Z,73.05
2022-10-10T06:37:50.189Z,48.38
2022-10-10T06:40:16.482Z,44.33
2022-10-10T06:42:42.740Z,52.80
2022-10-10T06:45:09.009Z,51.08
2022-10-10T06:47:35.349Z,68.65
2022-10-10T06:50:02.335Z,46.05
2022-10-10T06:52:28.611Z,61.38
2022-10-10T06:54:54.911Z,52.78
2022-10-10T06:57:21.193Z,49.88
2022-10-10T06:59:47.452Z,90.22
2022-10-10T07:02:13.694Z,67.63
2022-10-10T07:04:39.935Z,45.20
2022-10-10T07:07:06.186Z,50.38
2022-10-10T07:09:32.443Z,65.15
2022-10-10T07:11:58.694Z,61.95
2022-10-10T07:14:24.938Z,74.28
2022-10-10T07:16:51.207Z,80.80
2022-10-10T07:19:19.015Z,91.93
2022-10-10T07:21:45.285Z,63.13
2022-10-10T07:24:11.544Z,52.13
2022-10-10T07:26:38.255Z,45.15
2022-10-10T07:29:04.519Z,47.15
2022-10-10T07:31:30.779Z,79.70
2022-10-10T07:33:57.041Z,120.75
2022-10-10T07:36:23.339Z,59.45
2022-10-10T07:38:51.872Z,50.40
2022-10-10T07:41:18.152Z,46.72
2022-10-10T07:43:44.404Z,69.53
2022-10-10T07:46:12.286Z,61.53
2022-10-10T07:51:04.978Z,49.05
2022-10-10T07:53:31.226Z,50.13
2022-10-10T07:55:57.486Z,50.10
2022-10-10T07:58:23.736Z,45.42
2022-10-10T08:00:50.005Z,41.58
2022-10-10T08:03:16.265Z,44.35
2022-10-10T08:05:42.673Z,52.80
2022-10-10T08:08:08.954Z,61.13
2022-10-10T08:10:35.263Z,53.85
2022-10-10T08:13:01.511Z,45.97
2022-10-10T08:15:30.198Z,48.55
2022-10-10T08:18:00.011Z,46.72
2022-10-10T08:20:26.287Z,49.88
2022-10-10T08:22:52.778Z,59.88
2022-10-10T08:25:19.212Z,49.88
2022-10-10T08:27:45.537Z,45.53
2022-10-10T08:30:11.811Z,47.28
2022-10-10T08:32:38.087Z,51.60
2022-10-10T08:35:04.334Z,72.40
2022-10-10T08:37:35.252Z,90.40
2022-10-10T08:40:03.605Z,53.45
2022-10-10T08:42:29.864Z,45.90
2022-10-10T08:44:56.107Z,49.15
2022-10-10T08:47:22.368Z,48.17
2022-10-10T08:49:48.617Z,45.30
2022-10-10T08:52:14.916Z,50.40
2022-10-10T08:54:41.166Z,58.30
2022-10-10T08:57:07.446Z,54.00
2022-10-10T08:59:33.712Z,42.00
2022-10-10T09:02:17.930Z,40.63
2022-10-10T09:04:45.340Z,44.22
2022-10-10T09:07:12.126Z,63.72
2022-10-10T09:09:38.378Z,126.63
2022-10-10T09:12:04.627Z,139.57
2022-10-10T09:14:30.870Z,90.05
2022-10-10T09:16:57.142Z,102.45
2022-10-10T09:19:24.631Z,74.32
2022-10-10T09:21:51.148Z,62.15
2022-10-10T09:24:17.462Z,41.92
2022-10-10T09:26:44.260Z,45.65
2022-10-10T09:29:10.530Z,61.13
2022-10-10T09:31:36.792Z,57.75
2022-10-10T09:34:03.060Z,46.33
2022-10-10T09:36:30.248Z,41.58
2022-10-10T09:38:56.532Z,45.15
2022-10-10T09:41:22.814Z,48.67
2022-10-10T09:43:49.142Z,47.67
2022-10-10T09:46:15.409Z,42.15
2022-10-10T09:48:41.669Z,66.30
2022-10-10T09:51:07.920Z,57.38
2022-10-10T09:53:34.175Z,84.53
2022-10-10T09:56:00.439Z,46.47
2022-10-10T09:58:26.756Z,50.70
2022-10-10T10:00:53.775Z,47.55
2022-10-10T10:03:20.092Z,49.10
2022-10-10T10:05:46.451Z,64.75
2022-10-10T10:08:12.712Z,84.95
2022-10-10T10:10:39.068Z,102.55
2022-10-10T10:13:05.892Z,76.03
2022-10-10T10:15:32.146Z,61.83
2022-10-10T10:17:58.461Z,50.15
2022-10-10T10:20:24.719Z,106.63
2022-10-10T10:25:22.158Z,99.78
2022-10-10T10:27:48.498Z,59.22
2022-10-10T10:30:14.806Z,52.60
2022-10-10T10:32:41.097Z,60.67
2022-10-10T10:35:07.723Z,62.53
2022-10-10T10:37:33.983Z,70.13
2022-10-10T10:40:00.240Z,65.90
2022-10-10T10:42:26.646Z,67.53
2022-10-10T10:44:52.908Z,62.33
2022-10-10T10:47:19.154Z,58.75
2022-10-10T10:49:45.404Z,69.25
2022-10-10T10:52:11.670Z,62.78
2022-10-10T10:54:40.268Z,50.28
2022-10-10T10:57:10.897Z,64.10
2022-10-10T11:00:17.112Z,54.20
2022-10-10T11:02:43.618Z,56.47
2022-10-10T11:05:24.798Z,54.03
2022-10-10T11:07:53.413Z,64.82
2022-10-10T11:10:19.660Z,57.58
2022-10-10T11:12:45.924Z,58.33
2022-10-10T11:15:12.193Z,61.00
2022-10-10T11:17:38.457Z,55.53
2022-10-10T11:20:04.719Z,58.03
2022-10-10T11:22:31.007Z,53.80
2022-10-10T11:24:57.272Z,52.42
2022-10-10T11:27:23.523Z,48.65
2022-10-10T11:29:49.789Z,51.83
2022-10-10T11:32:16.111Z,62.58
2022-10-10T11:34:42.400Z,60.22
2022-10-10T11:37:08.659Z,47.75
2022-10-10T11:39:35.056Z,44.72
2022-10-10T11:42:02.350Z,46.38
2022-10-10T11:44:28.594Z,53.58
2022-10-10T11:46:54.879Z,50.78
2022-10-10T11:49:21.138Z,60.95
2022-10-10T11:51:47.400Z,74.18
2022-10-10T11:54:13.656Z,68.15
2022-10-10T11:56:40.121Z,62.50
2022-10-10T11:59:06.420Z,69.78
2022-10-10T12:01:32.680Z,71.95
2022-10-10T12:03:58.987Z,60.78
2022-10-10T12:06:25.324Z,60.15
2022-10-10T12:08:51.614Z,63.47
2022-10-10T12:11:17.926Z,67.32
2022-10-10T12:13:44.231Z,81.90
2022-10-10T12:16:10.516Z,104.10
2022-10-10T12:18:36.781Z,92.65
2022-10-10T12:21:03.177Z,131.10
2022-10-10T12:23:29.428Z,128.13
2022-10-10T12:25:55.736Z,98.10
2022-10-10T12:28:22.099Z,142.48
2022-10-10T12:30:48.394Z,202.55
2022-10-10T12:33:14.638Z,203.65
2022-10-10T12:35:40.951Z,129.05
2022-10-10T12:38:07.298Z,65.68
2022-10-10T12:40:33.578Z,81.55
2022-10-10T12:42:59.826Z,75.88
2022-10-10T12:45:26.124Z,74.07
2022-10-10T12:48:05.025Z,75.07
2022-10-10T12:50:34.871Z,117.05
2022-10-10T12:53:01.735Z,152.48
2022-10-10T12:55:28.054Z,165.50
2022-10-10T12:57:54.535Z,198.98
2022-10-10T13:00:20.799Z,152.82
2022-10-10T13:02:47.060Z,119.28
2022-10-10T13:05:13.405Z,75.40
2022-10-10T13:07:39.846Z,78.97
2022-10-10T13:10:06.106Z,71.10
2022-10-10T13:12:32.577Z,74.03
2022-10-10T13:14:58.836Z,65.30
2022-10-10T13:17:25.120Z,70.30
2022-10-10T13:19:51.385Z,70.72
2022-10-10T13:22:17.657Z,66.55
2022-10-10T13:24:43.917Z,80.40
2022-10-10T13:27:10.169Z,65.35
2022-10-10T13:29:36.473Z,74.95
2022-10-10T13:32:02.841Z,61.42
2022-10-10T13:34:29.101Z,63.63
2022-10-10T13:36:55.723Z,65.45
2022-10-10T13:39:22.020Z,71.35
2022-10-10T13:41:48.316Z,70.78
2022-10-10T13:44:14.864Z,70.95
2022-10-10T13:46:41.138Z,72.40
2022-10-10T13:49:07.563Z,79.20
2022-10-10T13:51:33.938Z,75.97
2022-10-10T13:54:00.267Z,90.13
2022-10-10T13:56:26.590Z,95.43
2022-10-10T13:58:52.889Z,120.72
2022-10-10T14:01:19.183Z,133.27
2022-10-10T14:03:45.658Z,131.75
2022-10-10T14:06:11.918Z,161.77
2022-10-10T14:08:38.210Z,139.50
2022-10-10T14:11:05.044Z,132.63
2022-10-10T14:13:31.714Z,149.57
2022-10-10T14:15:57.968Z,137.70
2022-10-10T14:21:27.305Z,80.85
2022-10-10T14:23:53.627Z,90.32
2022-10-10T14:26:19.899Z,119.15
2022-10-10T14:28:46.242Z,99.18
2022-10-10T14:31:12.624Z,86.93
2022-10-10T14:33:38.873Z,80.15
2022-10-10T14:36:05.719Z,85.32
2022-10-10T14:38:31.991Z,72.13
2022-10-10T14:40:58.245Z,75.68
2022-10-10T14:43:24.708Z,79.55
2022-10-10T14:45:50.969Z,89.85
2022-10-10T14:48:17.226Z,96.97
2022-10-10T14:50:44.120Z,114.15
2022-10-10T14:53:10.384Z,99.32
2022-10-10T14:55:37.314Z,116.10
2022-10-10T14:58:03.575Z,199.02
2022-10-10T15:00:29.836Z,194.10
2022-10-10T15:02:56.150Z,208.38
2022-10-10T15:05:22.434Z,244.80
2022-10-10T15:07:53.337Z,202.02
2022-10-10T15:10:33.379Z,201.48
2022-10-10T15:13:00.242Z,199.38
2022-10-10T15:15:26.495Z,149.00
2022-10-10T15:17:52.783Z,83.15
2022-10-10T15:20:20.150Z,67.43
2022-10-10T15:22:46.532Z,85.32
2022-10-10T15:25:12.832Z,104.93
2022-10-10T15:27:39.131Z,107.40
2022-10-10T15:30:05.404Z,89.85
2022-10-10T15:32:31.679Z,82.88
2022-10-10T15:34:57.952Z,85.45
2022-10-10T15:37:24.215Z,84.22
2022-10-10T15:39:50.462Z,82.00
2022-10-10T15:42:22.342Z,141.07
2022-10-10T15:44:49.500Z,135.75
2022-10-10T15:47:15.778Z,166.73
2022-10-10T15:49:42.067Z,145.75
2022-10-10T15:52:08.321Z,173.65
2022-10-10T15:54:34.575Z,132.98
2022-10-10T15:57:00.888Z,97.75
2022-10-10T15:59:27.168Z,90.18
2022-10-10T16:01:55.548Z,73.20
2022-10-10T16:04:22.483Z,61.42
2022-10-10T16:06:54.552Z,66.63
2022-10-10T16:09:28.742Z,65.78
2022-10-10T16:11:55.348Z,58.92
2022-10-10T16:14:21.625Z,55.17
2022-10-10T16:16:47.877Z,55.58
2022-10-10T16:19:14.152Z,62.13
2022-10-10T16:21:40.402Z,67.35
2022-10-10T16:24:06.704Z,88.28
2022-10-10T16:26:34.491Z,105.57
2022-10-10T16:29:00.746Z,121.47
2022-10-10T16:31:27.038Z,111.97
2022-10-10T16:33:53.295Z,107.53
2022-10-10T16:36:19.580Z,84.63
2022-10-10T16:38:45.933Z,80.50
2022-10-10T16:41:28.813Z,72.60
2022-10-10T16:43:58.436Z,62.78
2022-10-10T16:46:27.239Z,59.25
2022-10-10T16:48:53.878Z,64.68
2022-10-10T16:51:20.168Z,68.82
2022-10-10T16:53:46.439Z,82.97
2022-10-10T16:56:12.718Z,90.72
2022-10-10T16:58:39.112Z,81.40
2022-10-10T17:01:06.375Z,72.78
2022-10-10T17:03:32.737Z,66.40
2022-10-10T17:05:58.994Z,62.35
2022-10-10T17:08:25.261Z,64.25
2022-10-10T17:10:51.590Z,65.13
2022-10-10T17:13:17.847Z,62.55
2022-10-10T17:15:44.118Z,61.17
2022-10-10T17:18:10.390Z,83.57
2022-10-10T17:20:36.695Z,86.63
2022-10-10T17:23:03.107Z,115.78
2022-10-10T17:25:31.134Z,118.28
2022-10-10T17:30:23.613Z,87.57
2022-10-10T17:32:49.945Z,93.53
2022-10-10T17:35:16.261Z,67.57
2022-10-10T17:37:42.553Z,56.85
2022-10-10T17:40:08.840Z,59.97
2022-10-10T17:42:35.248Z,64.00
2022-10-10T17:45:01.530Z,63.25
2022-10-10T17:47:27.834Z,60.35
2022-10-10T17:49:54.376Z,60.65
2022-10-10T17:52:21.518Z,64.38
2022-10-10T17:54:47.921Z,86.90
2022-10-10T17:57:14.189Z,100.40
2022-10-10T17:59:40.447Z,104.75
2022-10-10T18:02:06.699Z,74.05
2022-10-10T18:04:32.963Z,51.03
2022-10-10T18:06:59.349Z,54.83
2022-10-10T18:09:25.695Z,75.00
2022-10-10T18:11:51.973Z,84.55
2022-10-10T18:14:18.243Z,60.63
2022-10-10T18:16:45.027Z,53.88
2022-10-10T18:19:11.343Z,57.78
2022-10-10T18:21:37.960Z,67.45
2022-10-10T18:24:07.096Z,62.08
2022-10-10T18:26:34.837Z,69.55
2022-10-10T18:29:01.091Z,67.35
2022-10-10T18:31:27.355Z,58.55
2022-10-10T18:33:53.645Z,55.15
2022-10-10T18:36:19.906Z,52.63
2022-10-10T18:38:46.159Z,53.30
2022-10-10T18:41:12.418Z,60.65
2022-10-10T18:43:39.738Z,85.40
2022-10-10T18:46:05.997Z,76.07
2022-10-10T18:48:32.356Z,67.00
2022-10-10T18:50:58.616Z,73.32
2022-10-10T18:53:24.876Z,57.53
2022-10-10T18:55:51.124Z,47.53
2022-10-10T18:58:20.053Z,54.42
2022-10-10T19:00:46.362Z,56.92
2022-10-10T19:03:13.574Z,64.10
2022-10-10T19:05:39.836Z,68.25
2022-10-10T19:08:06.082Z,65.20
2022-10-10T19:10:32.336Z,70.38
2022-10-10T19:12:58.591Z,66.43
2022-10-10T19:15:24.845Z,67.25
2022-10-10T19:17:51.160Z,69.18
2022-10-10T19:20:17.429Z,65.70
2022-10-10T19:22:43.688Z,64.85
2022-10-10T19:25:10.006Z,62.05
2022-10-10T19:27:36.263Z,62.40
2022-10-10T19:30:02.668Z,65.47
2022-10-10T19:32:29.005Z,65.70
2022-10-10T19:34:55.266Z,70.63
2022-10-10T19:37:21.570Z,63.42
2022-10-10T19:39:47.833Z,66.35
2022-10-10T19:42:14.096Z,63.22
2022-10-10T19:44:40.351Z,82.40
2022-10-10T19:47:06.616Z,72.80
2022-10-10T19:49:32.911Z,70.13
2022-10-10T19:51:59.167Z,66.75
2022-10-10T19:54:25.414Z,104.53
2022-10-10T19:56:51.841Z,106.97
2022-10-10T19:59:18.116Z,108.72
2022-10-10T20:01:44.619Z,100.70
2022-10-10T20:04:11.476Z,79.57
2022-10-10T20:06:37.795Z,75.45
2022-10-10T20:09:08.335Z,74.00
2022-10-10T20:11:36.026Z,74.30
2022-10-10T20:14:02.270Z,73.63
2022-10-10T20:16:28.554Z,83.72
2022-10-10T20:18:55.963Z,81.32
2022-10-10T20:21:22.826Z,79.32
2022-10-10T20:23:49.088Z,83.35
2022-10-10T20:26:15.361Z,84.78
2022-10-10T20:28:41.684Z,69.95
2022-10-10T20:31:08.011Z,74.95
2022-10-10T20:33:34.292Z,91.75
2022-10-10T20:36:00.535Z,63.90
2022-10-10T20:38:26.885Z,69.65
2022-10-10T20:40:53.144Z,65.25
2022-10-10T20:43:19.408Z,59.97
2022-10-10T20:45:45.668Z,66.03
2022-10-10T20:48:11.942Z,68.25
2022-10-10T20:50:38.214Z,66.72
2022-10-10T20:53:04.546Z,57.65
2022-10-10T20:55:30.824Z,57.53
2022-10-10T20:57:57.089Z,58.45
2022-10-10T21:00:23.340Z,57.05
2022-10-10T21:02:49.655Z,62.50
2022-10-10T21:05:15.925Z,55.97
2022-10-10T21:07:42.183Z,59.80
2022-10-10T21:10:08.438Z,54.47
2022-10-10T21:12:34.704Z,79.00
2022-10-10T21:15:02.392Z,74.35
2022-10-10T21:17:29.123Z,72.72
2022-10-10T21:19:55.430Z,75.28
2022-10-10T21:22:21.675Z,86.07
2022-10-10T21:24:47.965Z,59.25
2022-10-10T21:27:14.244Z,107.35
2022-10-10T21:29:40.500Z,82.78
2022-10-10T21:32:06.766Z,76.35
2022-10-10T21:34:33.014Z,101.93
2022-10-10T21:36:59.339Z,84.68
2022-10-10T21:39:26.447Z,75.95
2022-10-10T21:41:52.633Z,86.97
2022-10-10T21:44:18.888Z,71.28
2022-10-10T21:46:45.162Z,60.50
2022-10-10T21:49:11.427Z,55.47
2022-10-10T21:51:38.227Z,57.22
2022-10-10T21:54:04.504Z,60.50
2022-10-10T21:56:30.771Z,63.88
2022-10-10T21:59:00.990Z,77.50
2022-10-10T22:01:27.907Z,73.60
2022-10-10T22:03:54.311Z,81.65
2022-10-10T22:06:20.567Z,77.93
2022-10-10T22:08:46.841Z,66.40
2022-10-10T22:11:13.127Z,68.95
2022-10-10T22:13:39.405Z,63.33
2022-10-10T22:16:06.189Z,51.33
2022-10-10T22:18:32.814Z,54.50
2022-10-10T22:20:59.066Z,52.20
2022-10-10T22:23:25.379Z,47.70
2022-10-10T22:25:51.982Z,55.28
2022-10-10T22:28:18.244Z,51.90
2022-10-10T22:30:44.567Z,60.40
2022-10-10T22:33:10.833Z,57.63
2022-10-10T22:35:37.122Z,65.20
2022-10-10T22:38:03.394Z,67.88
2022-10-10T22:40:29.653Z,67.30
2022-10-10T22:42:55.938Z,65.45
2022-10-10T22:45:22.198Z,55.63
2022-10-10T22:47:48.458Z,73.20
2022-10-10T22:50:14.719Z,79.40
2022-10-10T22:52:40.981Z,82.78
2022-10-10T22:55:07.222Z,74.68
2022-10-10T22:57:33.494Z,77.25
2022-10-10T22:59:59.741Z,64.15
2022-10-10T23:02:26.045Z,58.92
2022-10-10T23:04:52.298Z,55.67
2022-10-10T23:07:20.159Z,62.00
2022-10-10T23:09:46.627Z,65.70
2022-10-10T23:12:12.875Z,59.38
2022-10-10T23:14:39.122Z,82.05
2022-10-10T23:17:05.378Z,100.22
2022-10-10T23:19:31.687Z,86.13
2022-10-10T23:21:57.943Z,86.35
2022-10-10T23:24:24.202Z,90.22
2022-10-10T23:26:50.442Z,97.78
2022-10-10T23:29:16.702Z,98.65
2022-10-10T23:31:42.957Z,122.40
2022-10-10T23:34:09.244Z,75.32
2022-10-10T23:36:35.524Z,119.38
2022-10-10T23:39:03.654Z,74.47
2022-10-10T23:41:32.766Z,109.70
2022-10-10T23:43:59.384Z,127.30
2022-10-10T23:46:25.652Z,133.10
2022-10-10T23:48:51.903Z,131.45
2022-10-10T23:51:18.159Z,88.75
2022-10-10T23:53:44.428Z,88.85
2022-10-10T23:56:10.723Z,66.85
2022-10-10T23:58:36.980Z,66.13
